sensor_id;sensor_type;location;lat;lon;timestamp;P1;durP1;ratioP1;P2;durP2;ratioP2
33644;SDS011;19986;48.190;16.366;2023-07-16T00:02:06;34.25;;;32.25;;
33644;SDS011;19986;48.190;16.366;2023-07-16T00:04:32;35.78;;;33.67;;
33644;SDS011;19986;48.190;16.366;2023-07-16T00:07:01;36.00;;;33.80;;
33644;SDS011;19986;48.190;16.366;2023-07-16T00:09:27;34.78;;;32.58;;
33644;SDS011;19986;48.190;16.366;2023-07-16T00:11:53;34.33;;;31.92;;
33644;SDS011;19986;48.190;16.366;2023-07-16T00:14:19;33.92;;;31.92;;
33644;SDS011;19986;48.190;16.366;2023-07-16T00:16:45;36.58;;;34.33;;
33644;SDS011;19986;48.190;16.366;2023-07-16T00:19:11;35.45;;;33.45;;
33644;SDS011;19986;48.190;16.366;2023-07-16T00:21:37;36.88;;;34.58;;
33644;SDS011;19986;48.190;16.366;2023-07-16T00:24:04;34.80;;;32.80;;
33644;SDS011;19986;48.190;16.366;2023-07-16T00:26:30;36.22;;;34.17;;
33644;SDS011;19986;48.190;16.366;2023-07-16T00:28:56;35.65;;;33.55;;
33644;SDS011;19986;48.190;16.366;2023-07-16T00:31:21;35.22;;;33.10;;
33644;SDS011;19986;48.190;16.366;2023-07-16T00:33:47;36.83;;;34.75;;
33644;SDS011;19986;48.190;16.366;2023-07-16T00:36:13;35.30;;;33.40;;
33644;SDS011;19986;48.190;16.366;2023-07-16T00:38:39;36.25;;;34.15;;
33644;SDS011;19986;48.190;16.366;2023-07-16T00:41:06;36.80;;;34.55;;
33644;SDS011;19986;48.190;16.366;2023-07-16T00:43:32;37.65;;;35.53;;
33644;SDS011;19986;48.190;16.366;2023-07-16T00:45:58;35.20;;;33.22;;
33644;SDS011;19986;48.190;16.366;2023-07-16T00:48:24;35.88;;;33.70;;
33644;SDS011;19986;48.190;16.366;2023-07-16T00:50:50;36.30;;;34.05;;
33644;SDS011;19986;48.190;16.366;2023-07-16T00:53:19;34.28;;;32.33;;
33644;SDS011;19986;48.190;16.366;2023-07-16T00:55:45;36.58;;;34.25;;
33644;SDS011;19986;48.190;16.366;2023-07-16T00:58:12;36.10;;;34.05;;
33644;SDS011;19986;48.190;16.366;2023-07-16T01:00:38;36.10;;;33.88;;
33644;SDS011;19986;48.190;16.366;2023-07-16T01:03:06;35.50;;;33.38;;
33644;SDS011;19986;48.190;16.366;2023-07-16T01:05:34;35.70;;;33.58;;
33644;SDS011;19986;48.190;16.366;2023-07-16T01:08:22;34.70;;;32.50;;
33644;SDS011;19986;48.190;16.366;2023-07-16T01:10:57;35.03;;;32.83;;
33644;SDS011;19986;48.190;16.366;2023-07-16T01:13:26;35.28;;;33.30;;
33644;SDS011;19986;48.190;16.366;2023-07-16T01:15:53;35.70;;;33.38;;
33644;SDS011;19986;48.190;16.366;2023-07-16T01:18:19;35.03;;;33.15;;
33644;SDS011;19986;48.190;16.366;2023-07-16T01:20:46;35.03;;;33.00;;
33644;SDS011;19986;48.190;16.366;2023-07-16T01:23:24;36.15;;;34.05;;
33644;SDS011;19986;48.190;16.366;2023-07-16T01:29:12;36.22;;;34.22;;
33644;SDS011;19986;48.190;16.366;2023-07-16T01:31:46;36.50;;;34.10;;
33644;SDS011;19986;48.190;16.366;2023-07-16T01:34:14;37.97;;;35.88;;
33644;SDS011;19986;48.190;16.366;2023-07-16T01:36:41;36.13;;;33.97;;
33644;SDS011;19986;48.190;16.366;2023-07-16T01:39:07;36.10;;;34.00;;
33644;SDS011;19986;48.190;16.366;2023-07-16T01:41:33;34.97;;;32.97;;
33644;SDS011;19986;48.190;16.366;2023-07-16T01:43:59;36.10;;;34.00;;
33644;SDS011;19986;48.190;16.366;2023-07-16T01:46:26;35.13;;;33.15;;
33644;SDS011;19986;48.190;16.366;2023-07-16T01:48:52;34.28;;;32.33;;
33644;SDS011;19986;48.190;16.366;2023-07-16T01:51:19;36.75;;;34.38;;
33644;SDS011;19986;48.190;16.366;2023-07-16T01:53:46;35.83;;;33.53;;
33644;SDS011;19986;48.190;16.366;2023-07-16T01:56:14;37.45;;;35.17;;
33644;SDS011;19986;48.190;16.366;2023-07-16T01:58:40;36.53;;;34.13;;
33644;SDS011;19986;48.190;16.366;2023-07-16T02:01:05;35.80;;;33.60;;
33644;SDS011;19986;48.190;16.366;2023-07-16T02:03:32;36.35;;;34.15;;
33644;SDS011;19986;48.190;16.366;2023-07-16T02:05:58;35.65;;;33.45;;
33644;SDS011;19986;48.190;16.366;2023-07-16T02:08:23;36.20;;;34.15;;
33644;SDS011;19986;48.190;16.366;2023-07-16T02:10:50;36.92;;;34.70;;
33644;SDS011;19986;48.190;16.366;2023-07-16T02:13:16;37.55;;;35.00;;
33644;SDS011;19986;48.190;16.366;2023-07-16T02:15:42;35.42;;;33.30;;
33644;SDS011;19986;48.190;16.366;2023-07-16T02:18:09;35.22;;;33.10;;
33644;SDS011;19986;48.190;16.366;2023-07-16T02:20:37;37.55;;;35.42;;
33644;SDS011;19986;48.190;16.366;2023-07-16T02:23:03;36.70;;;34.60;;
33644;SDS011;19986;48.190;16.366;2023-07-16T02:25:29;36.35;;;34.08;;
33644;SDS011;19986;48.190;16.366;2023-07-16T02:27:55;37.70;;;35.42;;
33644;SDS011;19986;48.190;16.366;2023-07-16T02:30:21;36.13;;;34.10;;
33644;SDS011;19986;48.190;16.366;2023-07-16T02:32:47;34.60;;;32.22;;
33644;SDS011;19986;48.190;16.366;2023-07-16T02:35:13;36.33;;;34.20;;
33644;SDS011;19986;48.190;16.366;2023-07-16T02:37:39;34.92;;;32.63;;
33644;SDS011;19986;48.190;16.366;2023-07-16T02:40:06;34.47;;;32.35;;
33644;SDS011;19986;48.190;16.366;2023-07-16T02:42:33;35.33;;;33.33;;
33644;SDS011;19986;48.190;16.366;2023-07-16T02:44:58;35.97;;;33.88;;
33644;SDS011;19986;48.190;16.366;2023-07-16T02:47:24;37.25;;;35.25;;
33644;SDS011;19986;48.190;16.366;2023-07-16T02:49:53;34.30;;;32.40;;
33644;SDS011;19986;48.190;16.366;2023-07-16T02:52:19;34.78;;;32.67;;
33644;SDS011;19986;48.190;16.366;2023-07-16T02:54:45;35.45;;;33.25;;
33644;SDS011;19986;48.190;16.366;2023-07-16T02:57:11;35.90;;;33.58;;
33644;SDS011;19986;48.190;16.366;2023-07-16T02:59:37;37.70;;;35.53;;
33644;SDS011;19986;48.190;16.366;2023-07-16T03:02:03;35.35;;;33.13;;
33644;SDS011;19986;48.190;16.366;2023-07-16T03:04:29;36.15;;;34.15;;
33644;SDS011;19986;48.190;16.366;2023-07-16T03:06:55;36.00;;;33.83;;
33644;SDS011;19986;48.190;16.366;2023-07-16T03:09:20;36.85;;;34.78;;
33644;SDS011;19986;48.190;16.366;2023-07-16T03:11:46;37.67;;;35.33;;
33644;SDS011;19986;48.190;16.366;2023-07-16T03:14:12;36.67;;;34.38;;
33644;SDS011;19986;48.190;16.366;2023-07-16T03:16:38;36.83;;;34.42;;
33644;SDS011;19986;48.190;16.366;2023-07-16T03:19:04;36.50;;;34.50;;
33644;SDS011;19986;48.190;16.366;2023-07-16T03:21:31;36.95;;;34.78;;
33644;SDS011;19986;48.190;16.366;2023-07-16T03:23:57;38.08;;;35.78;;
33644;SDS011;19986;48.190;16.366;2023-07-16T03:26:23;36.63;;;34.42;;
33644;SDS011;19986;48.190;16.366;2023-07-16T03:28:49;38.10;;;35.85;;
33644;SDS011;19986;48.190;16.366;2023-07-16T03:31:15;35.70;;;33.65;;
33644;SDS011;19986;48.190;16.366;2023-07-16T03:33:40;38.15;;;35.97;;
33644;SDS011;19986;48.190;16.366;2023-07-16T03:36:06;38.05;;;35.78;;
33644;SDS011;19986;48.190;16.366;2023-07-16T03:38:32;38.08;;;35.85;;
33644;SDS011;19986;48.190;16.366;2023-07-16T03:40:58;37.15;;;34.78;;
33644;SDS011;19986;48.190;16.366;2023-07-16T03:43:24;40.10;;;37.65;;
33644;SDS011;19986;48.190;16.366;2023-07-16T03:45:56;39.45;;;36.45;;
33644;SDS011;19986;48.190;16.366;2023-07-16T03:48:21;36.60;;;33.97;;
33644;SDS011;19986;48.190;16.366;2023-07-16T03:50:47;37.17;;;34.78;;
33644;SDS011;19986;48.190;16.366;2023-07-16T03:53:13;38.20;;;36.10;;
33644;SDS011;19986;48.190;16.366;2023-07-16T03:55:39;40.15;;;37.72;;
33644;SDS011;19986;48.190;16.366;2023-07-16T03:58:05;39.40;;;37.10;;
33644;SDS011;19986;48.190;16.366;2023-07-16T04:00:31;36.33;;;34.08;;
33644;SDS011;19986;48.190;16.366;2023-07-16T04:02:58;39.38;;;36.90;;
33644;SDS011;19986;48.190;16.366;2023-07-16T04:05:23;39.00;;;36.72;;
33644;SDS011;19986;48.190;16.366;2023-07-16T04:07:49;40.90;;;38.50;;
33644;SDS011;19986;48.190;16.366;2023-07-16T04:10:15;40.72;;;37.95;;
33644;SDS011;19986;48.190;16.366;2023-07-16T04:12:41;40.83;;;38.47;;
33644;SDS011;19986;48.190;16.366;2023-07-16T04:15:08;40.38;;;38.03;;
33644;SDS011;19986;48.190;16.366;2023-07-16T04:17:37;41.00;;;38.75;;
33644;SDS011;19986;48.190;16.366;2023-07-16T04:20:03;40.15;;;37.30;;
33644;SDS011;19986;48.190;16.366;2023-07-16T04:22:30;39.92;;;37.53;;
33644;SDS011;19986;48.190;16.366;2023-07-16T04:24:55;39.13;;;36.83;;
33644;SDS011;19986;48.190;16.366;2023-07-16T04:27:22;39.92;;;37.72;;
33644;SDS011;19986;48.190;16.366;2023-07-16T04:29:47;40.15;;;37.85;;
33644;SDS011;19986;48.190;16.366;2023-07-16T04:32:13;39.05;;;36.70;;
33644;SDS011;19986;48.190;16.366;2023-07-16T04:34:39;40.17;;;37.67;;
33644;SDS011;19986;48.190;16.366;2023-07-16T04:37:05;41.13;;;38.13;;
33644;SDS011;19986;48.190;16.366;2023-07-16T04:39:31;38.33;;;36.20;;
33644;SDS011;19986;48.190;16.366;2023-07-16T04:41:57;39.90;;;37.35;;
33644;SDS011;19986;48.190;16.366;2023-07-16T04:44:23;39.58;;;37.10;;
33644;SDS011;19986;48.190;16.366;2023-07-16T04:46:49;39.05;;;36.65;;
33644;SDS011;19986;48.190;16.366;2023-07-16T04:49:15;39.60;;;37.40;;
33644;SDS011;19986;48.190;16.366;2023-07-16T04:51:41;39.25;;;36.95;;
33644;SDS011;19986;48.190;16.366;2023-07-16T04:54:07;39.10;;;36.58;;
33644;SDS011;19986;48.190;16.366;2023-07-16T04:56:32;41.00;;;37.25;;
33644;SDS011;19986;48.190;16.366;2023-07-16T04:58:58;38.47;;;35.70;;
33644;SDS011;19986;48.190;16.366;2023-07-16T05:01:24;36.47;;;34.33;;
33644;SDS011;19986;48.190;16.366;2023-07-16T05:03:52;40.03;;;37.63;;
33644;SDS011;19986;48.190;16.366;2023-07-16T05:06:18;37.83;;;35.47;;
33644;SDS011;19986;48.190;16.366;2023-07-16T05:08:43;36.15;;;34.08;;
33644;SDS011;19986;48.190;16.366;2023-07-16T05:11:12;36.60;;;34.58;;
33644;SDS011;19986;48.190;16.366;2023-07-16T05:13:40;35.25;;;33.15;;
33644;SDS011;19986;48.190;16.366;2023-07-16T05:16:09;35.42;;;33.33;;
33644;SDS011;19986;48.190;16.366;2023-07-16T05:18:35;35.70;;;33.53;;
33644;SDS011;19986;48.190;16.366;2023-07-16T05:21:01;35.72;;;33.63;;
33644;SDS011;19986;48.190;16.366;2023-07-16T05:23:27;35.90;;;33.80;;
33644;SDS011;19986;48.190;16.366;2023-07-16T05:25:52;36.53;;;34.53;;
33644;SDS011;19986;48.190;16.366;2023-07-16T05:28:18;36.15;;;34.15;;
33644;SDS011;19986;48.190;16.366;2023-07-16T05:30:44;38.63;;;36.03;;
33644;SDS011;19986;48.190;16.366;2023-07-16T05:33:10;34.20;;;32.00;;
33644;SDS011;19986;48.190;16.366;2023-07-16T05:35:37;35.50;;;33.50;;
33644;SDS011;19986;48.190;16.366;2023-07-16T05:38:04;35.78;;;33.67;;
33644;SDS011;19986;48.190;16.366;2023-07-16T05:40:30;37.40;;;35.28;;
33644;SDS011;19986;48.190;16.366;2023-07-16T05:42:56;35.03;;;33.20;;
33644;SDS011;19986;48.190;16.366;2023-07-16T05:45:22;36.33;;;34.40;;
33644;SDS011;19986;48.190;16.366;2023-07-16T05:47:48;34.97;;;32.95;;
33644;SDS011;19986;48.190;16.366;2023-07-16T05:50:17;35.17;;;32.97;;
33644;SDS011;19986;48.190;16.366;2023-07-16T05:52:43;36.55;;;34.15;;
33644;SDS011;19986;48.190;16.366;2023-07-16T05:55:08;36.10;;;33.70;;
33644;SDS011;19986;48.190;16.366;2023-07-16T05:57:34;37.33;;;34.97;;
33644;SDS011;19986;48.190;16.366;2023-07-16T06:00:00;36.60;;;34.40;;
33644;SDS011;19986;48.190;16.366;2023-07-16T06:02:28;34.88;;;32.97;;
33644;SDS011;19986;48.190;16.366;2023-07-16T06:04:54;35.60;;;33.38;;
33644;SDS011;19986;48.190;16.366;2023-07-16T06:07:20;35.35;;;33.33;;
33644;SDS011;19986;48.190;16.366;2023-07-16T06:09:45;35.95;;;33.75;;
33644;SDS011;19986;48.190;16.366;2023-07-16T06:12:11;35.53;;;33.47;;
33644;SDS011;19986;48.190;16.366;2023-07-16T06:14:39;36.33;;;34.08;;
33644;SDS011;19986;48.190;16.366;2023-07-16T06:17:06;34.65;;;32.65;;
33644;SDS011;19986;48.190;16.366;2023-07-16T06:19:32;34.85;;;32.85;;
33644;SDS011;19986;48.190;16.366;2023-07-16T06:21:58;35.53;;;33.38;;
33644;SDS011;19986;48.190;16.366;2023-07-16T06:24:25;35.08;;;32.92;;
33644;SDS011;19986;48.190;16.366;2023-07-16T06:26:51;36.15;;;34.15;;
33644;SDS011;19986;48.190;16.366;2023-07-16T06:32:03;36.35;;;33.80;;
33644;SDS011;19986;48.190;16.366;2023-07-16T06:34:30;35.97;;;33.75;;
33644;SDS011;19986;48.190;16.366;2023-07-16T06:36:56;35.53;;;33.58;;
33644;SDS011;19986;48.190;16.366;2023-07-16T06:39:24;34.90;;;32.63;;
33644;SDS011;19986;48.190;16.366;2023-07-16T06:41:50;35.75;;;33.72;;
33644;SDS011;19986;48.190;16.366;2023-07-16T06:44:15;34.88;;;32.80;;
33644;SDS011;19986;48.190;16.366;2023-07-16T06:46:41;35.45;;;33.33;;
33644;SDS011;19986;48.190;16.366;2023-07-16T06:49:07;37.53;;;35.28;;
33644;SDS011;19986;48.190;16.366;2023-07-16T06:51:34;35.08;;;33.15;;
33644;SDS011;19986;48.190;16.366;2023-07-16T06:54:00;36.85;;;34.42;;
33644;SDS011;19986;48.190;16.366;2023-07-16T06:56:26;36.67;;;34.42;;
33644;SDS011;19986;48.190;16.366;2023-07-16T06:58:52;34.25;;;32.35;;
33644;SDS011;19986;48.190;16.366;2023-07-16T07:01:18;36.15;;;33.70;;
33644;SDS011;19986;48.190;16.366;2023-07-16T07:03:44;35.88;;;33.97;;
33644;SDS011;19986;48.190;16.366;2023-07-16T07:06:10;34.45;;;32.63;;
33644;SDS011;19986;48.190;16.366;2023-07-16T07:08:36;34.60;;;32.67;;
33644;SDS011;19986;48.190;16.366;2023-07-16T07:11:04;34.75;;;32.92;;
33644;SDS011;19986;48.190;16.366;2023-07-16T07:13:30;36.53;;;34.58;;
33644;SDS011;19986;48.190;16.366;2023-07-16T07:15:56;34.03;;;31.98;;
33644;SDS011;19986;48.190;16.366;2023-07-16T07:18:22;35.00;;;32.97;;
33644;SDS011;19986;48.190;16.366;2023-07-16T07:20:48;35.47;;;33.13;;
33644;SDS011;19986;48.190;16.366;2023-07-16T07:23:15;33.13;;;31.30;;
33644;SDS011;19986;48.190;16.366;2023-07-16T07:25:41;36.15;;;34.13;;
33644;SDS011;19986;48.190;16.366;2023-07-16T07:28:07;34.55;;;32.63;;
33644;SDS011;19986;48.190;16.366;2023-07-16T07:30:33;34.65;;;32.55;;
33644;SDS011;19986;48.190;16.366;2023-07-16T07:33:01;34.80;;;33.05;;
33644;SDS011;19986;48.190;16.366;2023-07-16T07:35:28;34.10;;;32.30;;
33644;SDS011;19986;48.190;16.366;2023-07-16T07:37:54;34.10;;;32.20;;
33644;SDS011;19986;48.190;16.366;2023-07-16T07:40:20;33.85;;;32.05;;
33644;SDS011;19986;48.190;16.366;2023-07-16T07:42:46;33.45;;;31.73;;
33644;SDS011;19986;48.190;16.366;2023-07-16T07:45:11;33.30;;;31.48;;
33644;SDS011;19986;48.190;16.366;2023-07-16T07:47:37;33.58;;;31.67;;
33644;SDS011;19986;48.190;16.366;2023-07-16T07:50:03;34.00;;;32.10;;
33644;SDS011;19986;48.190;16.366;2023-07-16T07:52:29;33.35;;;31.48;;
33644;SDS011;19986;48.190;16.366;2023-07-16T07:54:55;32.70;;;31.08;;
33644;SDS011;19986;48.190;16.366;2023-07-16T07:57:21;32.15;;;30.35;;
33644;SDS011;19986;48.190;16.366;2023-07-16T07:59:47;32.40;;;30.02;;
33644;SDS011;19986;48.190;16.366;2023-07-16T08:02:13;32.70;;;31.08;;
33644;SDS011;19986;48.190;16.366;2023-07-16T08:04:38;32.30;;;30.48;;
33644;SDS011;19986;48.190;16.366;2023-07-16T08:07:04;31.42;;;29.88;;
33644;SDS011;19986;48.190;16.366;2023-07-16T08:09:30;33.83;;;31.88;;
33644;SDS011;19986;48.190;16.366;2023-07-16T08:11:56;32.38;;;30.55;;
33644;SDS011;19986;48.190;16.366;2023-07-16T08:14:22;31.92;;;30.38;;
33644;SDS011;19986;48.190;16.366;2023-07-16T08:16:48;32.10;;;30.20;;
33644;SDS011;19986;48.190;16.366;2023-07-16T08:19:14;33.10;;;31.38;;
33644;SDS011;19986;48.190;16.366;2023-07-16T08:21:40;33.25;;;31.38;;
33644;SDS011;19986;48.190;16.366;2023-07-16T08:24:06;31.55;;;29.95;;
33644;SDS011;19986;48.190;16.366;2023-07-16T08:26:32;33.35;;;31.38;;
33644;SDS011;19986;48.190;16.366;2023-07-16T08:28:58;31.70;;;29.85;;
33644;SDS011;19986;48.190;16.366;2023-07-16T08:31:26;32.35;;;30.30;;
33644;SDS011;19986;48.190;16.366;2023-07-16T08:33:52;32.33;;;30.52;;
33644;SDS011;19986;48.190;16.366;2023-07-16T08:36:18;33.78;;;31.95;;
33644;SDS011;19986;48.190;16.366;2023-07-16T08:38:43;32.55;;;30.75;;
33644;SDS011;19986;48.190;16.366;2023-07-16T08:41:09;34.22;;;31.30;;
33644;SDS011;19986;48.190;16.366;2023-07-16T08:43:35;31.95;;;30.35;;
33644;SDS011;19986;48.190;16.366;2023-07-16T08:46:01;30.55;;;28.90;;
33644;SDS011;19986;48.190;16.366;2023-07-16T08:48:28;33.28;;;31.48;;
33644;SDS011;19986;48.190;16.366;2023-07-16T08:50:54;32.03;;;30.42;;
33644;SDS011;19986;48.190;16.366;2023-07-16T08:53:23;32.63;;;30.92;;
33644;SDS011;19986;48.190;16.366;2023-07-16T08:55:49;31.83;;;30.08;;
33644;SDS011;19986;48.190;16.366;2023-07-16T08:58:15;31.98;;;30.00;;
33644;SDS011;19986;48.190;16.366;2023-07-16T09:00:42;32.03;;;30.42;;
33644;SDS011;19986;48.190;16.366;2023-07-16T09:03:13;31.75;;;30.05;;
33644;SDS011;19986;48.190;16.366;2023-07-16T09:05:44;31.35;;;29.85;;
33644;SDS011;19986;48.190;16.366;2023-07-16T09:08:10;32.05;;;30.55;;
33644;SDS011;19986;48.190;16.366;2023-07-16T09:10:36;30.35;;;28.52;;
33644;SDS011;19986;48.190;16.366;2023-07-16T09:13:02;30.67;;;28.98;;
33644;SDS011;19986;48.190;16.366;2023-07-16T09:15:28;30.75;;;28.88;;
33644;SDS011;19986;48.190;16.366;2023-07-16T09:17:55;29.33;;;27.70;;
33644;SDS011;19986;48.190;16.366;2023-07-16T09:20:21;29.85;;;28.25;;
33644;SDS011;19986;48.190;16.366;2023-07-16T09:22:48;29.67;;;27.70;;
33644;SDS011;19986;48.190;16.366;2023-07-16T09:25:15;31.52;;;29.73;;
33644;SDS011;19986;48.190;16.366;2023-07-16T09:27:41;32.15;;;30.45;;
33644;SDS011;19986;48.190;16.366;2023-07-16T09:30:14;29.70;;;28.02;;
33644;SDS011;19986;48.190;16.366;2023-07-16T09:32:41;30.23;;;28.83;;
33644;SDS011;19986;48.190;16.366;2023-07-16T09:35:09;31.15;;;29.55;;
33644;SDS011;19986;48.190;16.366;2023-07-16T09:37:38;31.67;;;30.00;;
33644;SDS011;19986;48.190;16.366;2023-07-16T09:40:08;31.73;;;30.08;;
33644;SDS011;19986;48.190;16.366;2023-07-16T09:42:42;29.27;;;27.88;;
33644;SDS011;19986;48.190;16.366;2023-07-16T09:45:17;31.05;;;29.33;;
33644;SDS011;19986;48.190;16.366;2023-07-16T09:47:44;31.02;;;29.48;;
33644;SDS011;19986;48.190;16.366;2023-07-16T09:50:10;29.35;;;27.75;;
33644;SDS011;19986;48.190;16.366;2023-07-16T09:52:36;31.10;;;29.50;;
33644;SDS011;19986;48.190;16.366;2023-07-16T09:55:05;31.02;;;29.55;;
33644;SDS011;19986;48.190;16.366;2023-07-16T09:57:37;31.42;;;29.40;;
33644;SDS011;19986;48.190;16.366;2023-07-16T10:00:07;30.13;;;28.52;;
33644;SDS011;19986;48.190;16.366;2023-07-16T10:02:37;30.02;;;28.60;;
33644;SDS011;19986;48.190;16.366;2023-07-16T10:05:23;30.65;;;29.15;;
33644;SDS011;19986;48.190;16.366;2023-07-16T10:07:57;31.02;;;29.33;;
33644;SDS011;19986;48.190;16.366;2023-07-16T10:13:13;31.63;;;29.77;;
33644;SDS011;19986;48.190;16.366;2023-07-16T10:15:50;32.50;;;30.70;;
33644;SDS011;19986;48.190;16.366;2023-07-16T10:18:23;31.13;;;29.48;;
33644;SDS011;19986;48.190;16.366;2023-07-16T10:20:51;31.98;;;30.35;;
33644;SDS011;19986;48.190;16.366;2023-07-16T10:23:18;31.38;;;29.75;;
33644;SDS011;19986;48.190;16.366;2023-07-16T10:26:00;30.35;;;28.95;;
33644;SDS011;19986;48.190;16.366;2023-07-16T10:28:26;31.48;;;29.35;;
33644;SDS011;19986;48.190;16.366;2023-07-16T10:30:55;30.73;;;29.23;;
33644;SDS011;19986;48.190;16.366;2023-07-16T10:33:21;28.42;;;26.92;;
33644;SDS011;19986;48.190;16.366;2023-07-16T10:35:47;31.50;;;30.00;;
33644;SDS011;19986;48.190;16.366;2023-07-16T10:38:13;31.88;;;29.98;;
33644;SDS011;19986;48.190;16.366;2023-07-16T10:40:42;30.70;;;29.20;;
33644;SDS011;19986;48.190;16.366;2023-07-16T10:43:09;31.85;;;30.15;;
33644;SDS011;19986;48.190;16.366;2023-07-16T10:45:36;30.98;;;29.48;;
33644;SDS011;19986;48.190;16.366;2023-07-16T10:48:02;30.25;;;28.75;;
33644;SDS011;19986;48.190;16.366;2023-07-16T10:50:28;29.98;;;28.33;;
33644;SDS011;19986;48.190;16.366;2023-07-16T10:52:54;32.10;;;30.48;;
33644;SDS011;19986;48.190;16.366;2023-07-16T10:55:21;31.33;;;29.70;;
33644;SDS011;19986;48.190;16.366;2023-07-16T10:57:48;30.55;;;28.83;;
33644;SDS011;19986;48.190;16.366;2023-07-16T11:00:15;30.60;;;29.00;;
33644;SDS011;19986;48.190;16.366;2023-07-16T11:02:42;29.90;;;28.38;;
33644;SDS011;19986;48.190;16.366;2023-07-16T11:05:12;31.13;;;29.52;;
33644;SDS011;19986;48.190;16.366;2023-07-16T11:07:42;29.63;;;28.17;;
33644;SDS011;19986;48.190;16.366;2023-07-16T11:10:09;31.13;;;29.23;;
33644;SDS011;19986;48.190;16.366;2023-07-16T11:12:35;30.80;;;29.17;;
33644;SDS011;19986;48.190;16.366;2023-07-16T11:15:02;31.63;;;29.98;;
33644;SDS011;19986;48.190;16.366;2023-07-16T11:17:28;31.52;;;29.73;;
33644;SDS011;19986;48.190;16.366;2023-07-16T11:19:54;30.17;;;28.65;;
33644;SDS011;19986;48.190;16.366;2023-07-16T11:22:26;30.55;;;28.85;;
33644;SDS011;19986;48.190;16.366;2023-07-16T11:24:53;29.85;;;28.25;;
33644;SDS011;19986;48.190;16.366;2023-07-16T11:27:22;31.63;;;30.02;;
33644;SDS011;19986;48.190;16.366;2023-07-16T11:29:54;30.52;;;28.92;;
33644;SDS011;19986;48.190;16.366;2023-07-16T11:32:31;30.85;;;29.35;;
33644;SDS011;19986;48.190;16.366;2023-07-16T11:35:06;31.40;;;29.67;;
33644;SDS011;19986;48.190;16.366;2023-07-16T11:37:34;31.95;;;30.38;;
33644;SDS011;19986;48.190;16.366;2023-07-16T11:40:02;30.95;;;29.45;;
33644;SDS011;19986;48.190;16.366;2023-07-16T11:42:30;28.50;;;27.08;;
33644;SDS011;19986;48.190;16.366;2023-07-16T11:44:57;29.80;;;28.40;;
33644;SDS011;19986;48.190;16.366;2023-07-16T11:47:23;30.90;;;29.17;;
33644;SDS011;19986;48.190;16.366;2023-07-16T11:49:50;30.67;;;29.10;;
33644;SDS011;19986;48.190;16.366;2023-07-16T11:52:20;31.38;;;29.67;;
33644;SDS011;19986;48.190;16.366;2023-07-16T11:54:48;31.45;;;29.85;;
33644;SDS011;19986;48.190;16.366;2023-07-16T11:57:15;32.22;;;30.38;;
33644;SDS011;19986;48.190;16.366;2023-07-16T11:59:41;30.55;;;29.05;;
33644;SDS011;19986;48.190;16.366;2023-07-16T12:02:07;31.17;;;29.30;;
33644;SDS011;19986;48.190;16.366;2023-07-16T12:04:34;31.63;;;30.02;;
33644;SDS011;19986;48.190;16.366;2023-07-16T12:06:59;30.88;;;29.38;;
33644;SDS011;19986;48.190;16.366;2023-07-16T12:09:25;31.40;;;29.65;;
33644;SDS011;19986;48.190;16.366;2023-07-16T12:11:51;32.03;;;30.33;;
33644;SDS011;19986;48.190;16.366;2023-07-16T12:14:17;31.92;;;30.13;;
33644;SDS011;19986;48.190;16.366;2023-07-16T12:16:43;30.77;;;29.20;;
33644;SDS011;19986;48.190;16.366;2023-07-16T12:19:09;31.35;;;29.85;;
33644;SDS011;19986;48.190;16.366;2023-07-16T12:21:36;31.13;;;29.63;;
33644;SDS011;19986;48.190;16.366;2023-07-16T12:24:02;31.33;;;29.73;;
33644;SDS011;19986;48.190;16.366;2023-07-16T12:26:28;31.05;;;29.45;;
33644;SDS011;19986;48.190;16.366;2023-07-16T12:28:54;30.95;;;29.38;;
33644;SDS011;19986;48.190;16.366;2023-07-16T12:31:20;30.90;;;29.27;;
33644;SDS011;19986;48.190;16.366;2023-07-16T12:33:46;30.65;;;29.15;;
33644;SDS011;19986;48.190;16.366;2023-07-16T12:36:13;30.35;;;28.85;;
33644;SDS011;19986;48.190;16.366;2023-07-16T12:38:40;30.52;;;28.90;;
33644;SDS011;19986;48.190;16.366;2023-07-16T12:41:06;32.15;;;30.50;;
33644;SDS011;19986;48.190;16.366;2023-07-16T12:43:32;31.10;;;29.60;;
33644;SDS011;19986;48.190;16.366;2023-07-16T12:46:00;31.05;;;29.45;;
33644;SDS011;19986;48.190;16.366;2023-07-16T12:48:28;29.88;;;28.38;;
33644;SDS011;19986;48.190;16.366;2023-07-16T12:50:54;30.88;;;29.45;;
33644;SDS011;19986;48.190;16.366;2023-07-16T12:53:20;32.72;;;31.05;;
33644;SDS011;19986;48.190;16.366;2023-07-16T12:55:46;31.17;;;29.67;;
33644;SDS011;19986;48.190;16.366;2023-07-16T12:58:11;32.80;;;31.20;;
33644;SDS011;19986;48.190;16.366;2023-07-16T13:00:37;31.20;;;29.60;;
33644;SDS011;19986;48.190;16.366;2023-07-16T13:03:03;32.13;;;30.52;;
33644;SDS011;19986;48.190;16.366;2023-07-16T13:05:30;30.92;;;29.27;;
33644;SDS011;19986;48.190;16.366;2023-07-16T13:07:57;32.28;;;29.85;;
33644;SDS011;19986;48.190;16.366;2023-07-16T13:10:23;30.42;;;28.83;;
33644;SDS011;19986;48.190;16.366;2023-07-16T13:12:49;30.95;;;29.52;;
33644;SDS011;19986;48.190;16.366;2023-07-16T13:15:15;31.08;;;29.60;;
33644;SDS011;19986;48.190;16.366;2023-07-16T13:17:42;32.28;;;29.98;;
33644;SDS011;19986;48.190;16.366;2023-07-16T13:20:08;30.90;;;29.40;;
33644;SDS011;19986;48.190;16.366;2023-07-16T13:22:35;31.75;;;30.05;;
33644;SDS011;19986;48.190;16.366;2023-07-16T13:25:02;31.30;;;29.83;;
33644;SDS011;19986;48.190;16.366;2023-07-16T13:27:28;32.63;;;30.80;;
33644;SDS011;19986;48.190;16.366;2023-07-16T13:29:55;30.77;;;29.17;;
33644;SDS011;19986;48.190;16.366;2023-07-16T13:32:21;30.70;;;29.10;;
33644;SDS011;19986;48.190;16.366;2023-07-16T13:34:48;29.98;;;28.48;;
33644;SDS011;19986;48.190;16.366;2023-07-16T13:37:15;31.20;;;29.60;;
33644;SDS011;19986;48.190;16.366;2023-07-16T13:39:41;32.00;;;30.33;;
33644;SDS011;19986;48.190;16.366;2023-07-16T13:42:08;30.17;;;28.77;;
33644;SDS011;19986;48.190;16.366;2023-07-16T13:44:36;31.17;;;29.58;;
33644;SDS011;19986;48.190;16.366;2023-07-16T13:47:03;31.92;;;30.33;;
33644;SDS011;19986;48.190;16.366;2023-07-16T13:49:29;33.28;;;31.67;;
33644;SDS011;19986;48.190;16.366;2023-07-16T13:51:56;32.22;;;30.63;;
33644;SDS011;19986;48.190;16.366;2023-07-16T13:54:23;31.48;;;29.88;;
33644;SDS011;19986;48.190;16.366;2023-07-16T13:56:49;31.42;;;29.83;;
33644;SDS011;19986;48.190;16.366;2023-07-16T13:59:16;30.65;;;29.00;;
33644;SDS011;19986;48.190;16.366;2023-07-16T14:01:42;30.90;;;29.08;;
33644;SDS011;19986;48.190;16.366;2023-07-16T14:04:09;31.10;;;29.60;;
33644;SDS011;19986;48.190;16.366;2023-07-16T14:06:36;31.90;;;29.85;;
33644;SDS011;19986;48.190;16.366;2023-07-16T14:09:02;32.35;;;30.75;;
33644;SDS011;19986;48.190;16.366;2023-07-16T14:11:30;31.58;;;30.08;;
33644;SDS011;19986;48.190;16.366;2023-07-16T14:13:57;30.35;;;28.83;;
33644;SDS011;19986;48.190;16.366;2023-07-16T14:16:23;31.00;;;29.58;;